Flight Track Log - Related Links

Times and Time Zones

All times are in EDT time to prevent confusion due to time zone crossing. See the SWA158 flight status page for this flight to view local times or setup timezone preferences in your user account.

Time Position Orientation Groundspeed Altitude Reporting Facility
EDT Latitude Longitude Course Direction KTS MPH feet Rate Location/Type
Wed 03:08:11 PM 41.8000 -87.7667 71° East 143 165 1,900  Level Chicago TRACON
Wed 03:09:05 PM 41.8167 -87.7000 71° East 223 257 3,800 2,509 Climbing Chicago TRACON
Wed 03:10:56 PM 41.8028 -87.5358 96° East 272 313 8,800 3,191 Climbing Chicago Center
Wed 03:11:58 PM 41.7922 -87.3997 96° East 301 346 13,000 3,290 Climbing Chicago Center
Wed 03:13:00 PM 41.7811 -87.2722 97° East 336 387 15,600 2,758 Climbing Chicago Center
Wed 03:14:02 PM 41.7683 -87.1339 97° East 368 423 18,700 2,903 Climbing Chicago Center
Wed 03:15:04 PM 41.7606 -86.9853 94° East 393 452 21,600 2,710 Climbing Chicago Center
Wed 03:16:06 PM 41.7642 -86.8322 88° East 411 473 24,300 3,000 Climbing Chicago Center
Wed 03:17:08 PM 41.7656 -86.6697 89° East 409 471 27,800 2,352 Climbing Chicago Center
Wed 03:18:11 PM 41.7661 -86.5186 90° East 407 468 29,200 1,258 Climbing Chicago Center
Wed 03:19:12 PM 41.7681 -86.3525 89° East 441 507 30,400 1,610 Climbing Chicago Center
Wed 03:20:14 PM 41.7983 -86.1439 79° East 475 547 32,500 1,887 Climbing Chicago Center
Wed 03:21:16 PM 41.8278 -85.9711 77° East 474 545 34,300 1,548 Climbing Chicago Center
Wed 03:22:18 PM 41.8572 -85.7978 77° East 474 545 35,700 1,210 Climbing Chicago Center
Wed 03:23:20 PM 41.8861 -85.6244 77° East 473 544 36,800 871 Climbing Chicago Center
Wed 03:24:22 PM 41.9153 -85.4442 78° East 486 559 37,500 913 Climbing Chicago Center
Wed 03:25:38 PM 41.9517 -85.2214 78° East 515 593 38,900 662 Climbing Cleveland Center
Wed 03:26:38 PM 41.9544 -85.0428 89° East 494 568 39,000 50 Climbing Cleveland Center
Wed 03:27:38 PM 41.9514 -84.8525 91° East 488 562 39,000  Level Cleveland Center
Wed 03:28:38 PM 41.9497 -84.6653 91° East 496 571 39,000  Level Cleveland Center
Wed 03:29:38 PM 41.9500 -84.4783 90° East 496 571 39,000  Level Cleveland Center
Wed 03:30:38 PM 41.9425 -84.2683 93° East 496 571 39,000  Level Cleveland Center
Wed 03:31:38 PM 41.9400 -84.0811 91° East 496 571 39,000  Level Cleveland Center
Wed 03:32:38 PM 41.9394 -83.8911 90° East 501 577 39,000  Level Cleveland Center
Wed 03:33:38 PM 41.9364 -83.6983 91° East 501 577 39,000  Level Cleveland Center
Wed 03:34:38 PM 41.9311 -83.5056 92° East 506 582 39,000  Level Cleveland Center
Wed 03:35:38 PM 41.9317 -83.3131 90° East 514 592 39,000  Level Cleveland Center
Wed 03:36:38 PM 41.9314 -83.1369 90° East 520 598 39,000  Level Cleveland Center
Wed 03:37:38 PM 41.9294 -82.9417 91° East 520 598 39,000  Level Cleveland Center
Wed 03:38:38 PM 41.9292 -82.7489 90° East 520 598 39,000  Level Cleveland Center
Wed 03:39:38 PM 41.9264 -82.5564 91° East 515 593 39,000  Level Cleveland Center
Wed 03:40:38 PM 41.9233 -82.3636 91° East 515 593 39,000  Level Cleveland Center
Wed 03:41:38 PM 41.9175 -82.1764 92° East 510 587 39,000  Level Cleveland Center
Wed 03:42:38 PM 41.9222 -81.9814 88° East 510 587 39,000  Level Cleveland Center
Wed 03:43:38 PM 41.9225 -81.7747 90° East 515 593 39,000  Level Cleveland Center
Wed 03:44:38 PM 41.9431 -81.5797 82° East 515 593 39,000  Level Cleveland Center
Wed 03:45:38 PM 41.9656 -81.3819 81° East 530 610 39,000  Level Cleveland Center
Wed 03:46:38 PM 41.9875 -81.1781 82° East 537 618 39,000  Level Cleveland Center
Wed 03:47:38 PM 42.0094 -80.9800 81° East 544 626 39,000  Level Cleveland Center
Wed 03:48:38 PM 42.0306 -80.7761 82° East 550 633 39,000  Level Cleveland Center
Wed 03:49:38 PM 42.0497 -80.5917 82° East 545 627 39,000 1,000 Level Cleveland Center
Wed 03:50:38 PM 42.0703 -80.3733 83° East 545 627 41,000 1,000 Climbing Cleveland Center
Wed 03:51:38 PM 42.0886 -80.1969 82° East 531 611 41,000  Level Cleveland Center
Wed 03:52:38 PM 42.1064 -80.0039 83° East 520 598 41,000  Level Cleveland Center
Wed 03:53:38 PM 42.1264 -79.8133 82° East 520 598 41,000  Level Cleveland Center
Wed 03:54:38 PM 42.1436 -79.6169 83° East 532 612 41,000  Level Cleveland Center
Wed 03:55:38 PM 42.1625 -79.4178 83° East 532 612 41,000  Level Cleveland Center
Wed 03:56:38 PM 42.1811 -79.2186 83° East 532 612 41,000  Level Cleveland Center
Wed 03:57:38 PM 42.2017 -79.0219 82° East 532 612 41,000  Level Cleveland Center
Wed 03:58:38 PM 42.2278 -78.8083 81° East 532 612 41,000  Level Cleveland Center
Wed 03:59:38 PM 42.2536 -78.6139 80° East 527 606 41,000  Level Cleveland Center
Wed 04:00:38 PM 42.2794 -78.4167 80° East 527 606 41,000  Level Cleveland Center
Wed 04:01:38 PM 42.3028 -78.2222 81° East 527 606 41,000  Level Cleveland Center
Wed 04:02:38 PM 42.3256 -78.0303 81° East 527 606 41,000  Level Cleveland Center
Wed 04:03:38 PM 42.3483 -77.8356 81° East 522 601 41,000  Level Cleveland Center
Wed 04:04:38 PM 42.3686 -77.6461 82° East 522 601 41,000  Level Cleveland Center
Wed 04:06:00 PM 42.3809 -77.4145 86° East  Level FlightAware Approximate
Wed 04:06:38 PM 42.4108 -77.2814 86° East 522 601 41,000  Level Cleveland Center
Wed 04:08:16 PM 42.4453 -76.9736 81° East 517 595 41,000  Level Boston Center
Wed 04:09:16 PM 42.4675 -76.7836 81° East 517 595 41,000  Level Boston Center
Wed 04:10:16 PM 42.4869 -76.5964 82° East 517 595 41,000  Level Boston Center
Wed 04:11:16 PM 42.5064 -76.4033 82° East 517 595 41,000 -50 Level Boston Center
Wed 04:12:16 PM 42.5297 -76.2017 81° East 517 595 40,900 -50 Descending Boston Center
Wed 04:13:16 PM 42.5442 -76.0167 84° East 499 574 40,900 50 Level Boston Center
Wed 04:14:16 PM 42.5644 -75.8344 81° East 499 574 41,000  Climbing Boston Center
Wed 04:15:16 PM 42.6092 -75.6564 71° East 499 574 40,900  Descending Boston Center
Wed 04:16:16 PM 42.6536 -75.4808 71° East 486 559 41,000 -500 Climbing Boston Center
Wed 04:17:16 PM 42.6997 -75.3133 69° East 479 551 39,900 -1,600 Descending Boston Center
Wed 04:18:16 PM 42.7353 -75.1369 75° East 479 551 37,800 -2,150 Descending Boston Center
Wed 04:19:16 PM 42.7397 -74.9419 88° East 492 566 35,600 -2,250 Descending Boston Center
Wed 04:20:16 PM 42.7417 -74.7500 89° East 498 573 33,300 -2,550 Descending Boston Center
Wed 04:21:16 PM 42.7433 -74.5606 89° East 498 573 30,500 -2,150 Descending Boston Center
Wed 04:22:16 PM 42.7444 -74.3767 89° East 492 566 29,000 -1,000 Descending Boston Center
Wed 04:23:16 PM 42.7433 -74.1928 90° East 487 560 28,500 -800 Descending Boston Center
Wed 04:24:16 PM 42.7456 -74.0375 89° East 480 552 27,400 -1,050 Descending Boston Center
Wed 04:25:16 PM 42.7458 -73.8650 90° East 466 536 26,400 -1,050 Descending Boston Center
Wed 04:26:16 PM 42.7542 -73.6814 86° East 445 512 25,300 -1,050 Descending Boston Center
Wed 04:27:16 PM 42.7600 -73.5175 87° East 439 505 24,300 -1,000 Descending Boston Center
Wed 04:28:16 PM 42.7656 -73.3564 87° East 429 494 23,300 -1,000 Descending Boston Center
Wed 04:29:16 PM 42.7708 -73.1953 87° East 424 488 22,300 -1,000 Descending Boston Center
Wed 04:30:16 PM 42.7761 -73.0397 87° East 418 481 21,300 -1,000 Descending Boston Center
Wed 04:31:16 PM 42.7789 -72.8928 88° East 418 481 20,300 -1,200 Descending Boston Center
Wed 04:32:16 PM 42.7856 -72.7514 86° East 402 463 18,900 -1,650 Descending Boston Center
Wed 04:33:16 PM 42.7881 -72.6069 89° East 385 443 17,000 -1,750 Descending Boston Center
Wed 04:34:16 PM 42.7900 -72.4711 89° East 373 429 15,400 -1,650 Descending Boston Center
Wed 04:35:16 PM 42.7942 -72.3325 88° East 366 421 13,700 -1,750 Descending Boston Center
Wed 04:36:16 PM 42.8022 -72.1883 86° East 361 415 11,900 -1,700 Descending Boston Center
Wed 04:37:16 PM 42.8125 -72.0636 84° East 343 395 10,300 -1,350 Descending Boston Center
Wed 04:38:16 PM 42.8558 -71.9586 61° Northeast 315 362 9,200 -1,450 Descending Boston Center
Wed 04:39:16 PM 42.8992 -71.8533 61° Northeast 309 356 7,400 -1,550 Descending Boston Center
Wed 04:40:16 PM 42.9422 -71.7508 60° Northeast 314 361 6,100 -1,150 Descending Boston Center
Wed 04:41:16 PM 42.9811 -71.6511 62° Northeast 303 349 5,100 -1,100 Descending Boston Center
Wed 04:42:16 PM 43.0350 -71.5794 44° Northeast 284 327 3,900 -1,350 Descending Boston Center
Wed 04:43:16 PM 43.0489 -71.4997 77° East 226 260 2,400 -900 Descending Boston Center
Wed 04:44:16 PM 43.0069 -71.4806 162° South 127 146 2,100 -750 Descending Boston Center
Wed 04:45:16 PM 42.9692 -71.4556 154° Southeast 122 140 900 -900 Descending Boston Center
Wed 04:46:16 PM 42.9419 -71.4389 156° South 134 154 300 4,050 Descending Boston Center
Wed 04:47:16 PM 42.9044 -71.4169 157° South 134 154 9,000 4,350 Climbing Boston Center
Wed 04:48:16 PM 42.8667 -71.3947 157° South 134 154 9,000  Level Boston Center
Wed 04:49:16 PM 42.8311 -71.3756 158° South 134 154 9,000  Level Boston Center
Wed 04:51:00 PM 42.9167 -71.4333 316° Northwest  Level FlightAware Approximate
Wed 04:58:00 PM 42.9328 -71.4358 316° Northwest  Level Estimated
Wed 04:59:00 PM 42.9328 -71.4358 316° Northwest  Level Estimated
Wed 05:00:00 PM 42.9328 -71.4358 316° Northwest  Level Estimated
Wed 05:01:00 PM 42.9328 -71.4358 316° Northwest  Level Estimated

Login

Don't have an account? Register now (free) for customized features, flight alerts, and more!